createdAt,value
2023-10-12T00:02:10.616Z,7.20
2023-10-12T00:04:55.367Z,7.20
2023-10-12T00:07:34.638Z,7.10
2023-10-12T00:10:15.449Z,7.00
2023-10-12T00:12:46.840Z,8.30
2023-10-12T00:15:22.089Z,7.90
2023-10-12T00:17:54.752Z,8.30
2023-10-12T00:20:41.484Z,7.50
2023-10-12T00:23:13.441Z,8.10
2023-10-12T00:25:50.689Z,8.10
2023-10-12T00:28:21.199Z,7.90
2023-10-12T00:30:58.891Z,8.10
2023-10-12T00:33:26.812Z,7.00
2023-10-12T00:36:06.237Z,7.50
2023-10-12T00:38:34.043Z,8.30
2023-10-12T00:41:06.372Z,7.10
2023-10-12T00:43:39.154Z,7.40
2023-10-12T00:46:23.464Z,7.20
2023-10-12T00:48:57.709Z,7.20
2023-10-12T00:51:25.453Z,7.20
2023-10-12T00:53:58.586Z,6.90
2023-10-12T00:56:30.109Z,6.90
2023-10-12T00:58:57.676Z,6.90
2023-10-12T01:05:04.733Z,8.10
2023-10-12T01:08:51.626Z,8.70
2023-10-12T01:12:38.595Z,8.20
2023-10-12T01:16:26.404Z,8.00
2023-10-12T01:20:10.122Z,8.80
2023-10-12T01:23:57.212Z,8.20
2023-10-12T01:27:44.754Z,8.30
2023-10-12T01:31:31.943Z,8.80
2023-10-12T01:35:20.093Z,8.50
2023-10-12T01:39:06.962Z,7.90
2023-10-12T01:42:34.362Z,7.80
2023-10-12T01:46:23.951Z,7.10
2023-10-12T01:49:51.618Z,7.10
2023-10-12T01:53:41.322Z,7.00
2023-10-12T01:57:28.691Z,6.50
2023-10-12T02:01:05.313Z,8.10
2023-10-12T02:04:52.178Z,7.70
2023-10-12T02:08:39.010Z,7.20
2023-10-12T02:12:26.005Z,7.40
2023-10-12T02:15:53.708Z,7.80
2023-10-12T02:19:24.220Z,7.00
2023-10-12T02:22:53.165Z,7.90
2023-10-12T02:26:21.304Z,7.80
2023-10-12T02:29:51.025Z,7.20
2023-10-12T02:33:20.987Z,6.60
2023-10-12T02:37:04.143Z,6.60
2023-10-12T02:40:16.256Z,6.70
2023-10-12T02:44:03.374Z,6.80
2023-10-12T02:47:22.670Z,6.60
2023-10-12T02:51:21.906Z,7.30
2023-10-12T02:54:49.739Z,6.40
2023-10-12T02:58:40.963Z,7.00
2023-10-12T03:01:51.521Z,8.10
2023-10-12T03:05:18.913Z,6.60
2023-10-12T03:09:24.565Z,6.70
2023-10-12T03:13:00.373Z,6.50
2023-10-12T03:16:47.642Z,6.40
2023-10-12T03:20:17.140Z,6.10
2023-10-12T03:24:10.530Z,5.90
2023-10-12T03:27:57.540Z,6.20
2023-10-12T03:31:47.677Z,5.30
2023-10-12T03:35:34.813Z,5.50
2023-10-12T03:39:13.410Z,6.20
2023-10-12T03:42:32.640Z,6.30
2023-10-12T03:46:00.795Z,5.90
2023-10-12T03:49:28.716Z,5.70
2023-10-12T03:56:23.179Z,6.70
2023-10-12T03:59:53.500Z,7.20
2023-10-12T04:03:40.424Z,6.30
2023-10-12T04:07:39.727Z,6.20
2023-10-12T04:11:25.581Z,6.00
2023-10-12T04:15:13.162Z,6.10
2023-10-12T04:19:03.468Z,6.30
2023-10-12T04:22:52.940Z,5.60
2023-10-12T04:26:17.902Z,5.70
2023-10-12T04:30:05.855Z,5.70
2023-10-12T04:34:05.385Z,6.10
2023-10-12T04:37:32.506Z,6.30
2023-10-12T04:41:00.950Z,6.10
2023-10-12T04:44:45.753Z,5.30
2023-10-12T04:48:16.957Z,6.10
2023-10-12T04:52:04.285Z,6.00
2023-10-12T04:55:18.568Z,6.60
2023-10-12T04:58:50.613Z,6.90
2023-10-12T05:02:38.167Z,7.00
2023-10-12T05:06:26.306Z,7.50
2023-10-12T05:10:15.772Z,6.70
2023-10-12T05:17:31.140Z,5.80
2023-10-12T05:21:19.949Z,5.60
2023-10-12T05:25:10.547Z,5.30
2023-10-12T05:28:06.738Z,5.60
2023-10-12T05:30:34.182Z,6.10
2023-10-12T05:33:06.538Z,5.70
2023-10-12T05:35:54.506Z,6.60
2023-10-12T05:38:35.902Z,6.50
2023-10-12T05:41:07.684Z,6.50
2023-10-12T05:43:35.320Z,7.00
2023-10-12T05:46:15.451Z,6.90
2023-10-12T05:48:53.452Z,6.70
2023-10-12T05:51:23.549Z,7.20
2023-10-12T05:53:53.904Z,7.00
2023-10-12T05:56:21.051Z,6.70
2023-10-12T05:58:48.919Z,7.30
2023-10-12T06:04:07.742Z,7.30
2023-10-12T06:06:43.480Z,7.90
2023-10-12T06:09:15.650Z,7.20
2023-10-12T06:11:45.691Z,6.90
2023-10-12T06:14:16.258Z,7.10
2023-10-12T06:16:44.093Z,7.10
2023-10-12T06:19:28.710Z,7.40
2023-10-12T06:22:56.632Z,7.10
2023-10-12T06:26:50.517Z,6.90
2023-10-12T06:30:40.654Z,8.20
2023-10-12T06:34:28.690Z,6.20
2023-10-12T06:38:17.167Z,8.20
2023-10-12T06:41:47.593Z,7.90
2023-10-12T06:44:57.111Z,8.20
2023-10-12T06:48:26.898Z,9.00
2023-10-12T06:52:22.692Z,8.20
2023-10-12T06:56:10.036Z,7.90
2023-10-12T06:59:59.876Z,7.10
2023-10-12T07:03:47.047Z,7.00
2023-10-12T07:07:34.060Z,6.40
2023-10-12T07:10:26.080Z,7.80
2023-10-12T07:12:53.861Z,7.50
2023-10-12T07:15:23.539Z,6.70
2023-10-12T07:17:52.030Z,7.10
2023-10-12T07:20:33.182Z,7.40
2023-10-12T07:23:22.076Z,7.00
2023-10-12T07:25:51.986Z,6.60
2023-10-12T07:28:20.766Z,7.10
2023-10-12T07:31:25.254Z,6.30
2023-10-12T07:33:56.010Z,6.90
2023-10-12T07:36:44.913Z,6.70
2023-10-12T07:39:23.972Z,6.80
2023-10-12T07:42:02.633Z,6.40
2023-10-12T07:44:44.565Z,7.10
2023-10-12T07:47:21.233Z,6.50
2023-10-12T07:49:53.054Z,7.50
2023-10-12T07:52:20.197Z,6.70
2023-10-12T07:54:53.793Z,6.90
2023-10-12T07:57:32.911Z,6.50
2023-10-12T08:00:00.269Z,6.40
2023-10-12T08:02:47.385Z,6.60
2023-10-12T08:05:27.089Z,6.10
2023-10-12T08:08:00.446Z,6.60
2023-10-12T08:11:30.538Z,6.30
2023-10-12T08:15:17.335Z,6.50
2023-10-12T08:18:47.583Z,6.30
2023-10-12T08:22:14.489Z,5.80
2023-10-12T08:25:30.444Z,6.80
2023-10-12T08:28:57.232Z,6.70
2023-10-12T08:32:50.445Z,6.10
2023-10-12T08:36:19.069Z,5.50
2023-10-12T08:39:10.084Z,5.60
2023-10-12T08:41:56.579Z,5.00
2023-10-12T08:47:08.816Z,4.60
2023-10-12T08:49:37.460Z,5.00
2023-10-12T08:52:20.710Z,5.60
2023-10-12T08:54:54.816Z,4.90
2023-10-12T08:57:40.653Z,6.60
2023-10-12T09:00:31.059Z,6.00
2023-10-12T09:03:01.995Z,5.70
2023-10-12T09:05:32.361Z,5.30
2023-10-12T09:08:07.076Z,5.40
2023-10-12T09:11:02.369Z,4.80
2023-10-12T09:13:35.087Z,5.00
2023-10-12T09:16:06.124Z,4.00
2023-10-12T09:18:43.175Z,4.70
2023-10-12T09:21:23.926Z,4.30
2023-10-12T09:24:37.804Z,4.30
2023-10-12T09:28:06.018Z,5.50
2023-10-12T09:31:52.001Z,5.10
2023-10-12T09:35:05.634Z,5.80
2023-10-12T09:38:34.120Z,5.40
2023-10-12T09:45:46.020Z,5.10
2023-10-12T09:49:33.171Z,4.60
2023-10-12T09:53:03.410Z,4.50
2023-10-12T09:56:15.594Z,4.50
2023-10-12T09:59:39.213Z,4.60
2023-10-12T10:03:08.216Z,4.20
2023-10-12T10:06:24.188Z,4.70
2023-10-12T10:09:39.230Z,4.30
2023-10-12T10:13:02.424Z,4.90
2023-10-12T10:16:32.685Z,4.90
2023-10-12T10:19:47.856Z,4.80
2023-10-12T10:22:40.403Z,4.80
2023-10-12T10:25:45.022Z,5.00
2023-10-12T10:28:59.757Z,4.70
2023-10-12T10:31:35.315Z,4.90
2023-10-12T10:34:28.138Z,4.80
2023-10-12T10:37:55.664Z,3.80
2023-10-12T10:40:54.701Z,3.90
2023-10-12T10:43:42.357Z,4.50
2023-10-12T10:46:50.972Z,4.30
2023-10-12T10:52:08.464Z,4.60
2023-10-12T10:54:41.461Z,5.00
2023-10-12T10:57:26.616Z,4.10
2023-10-12T11:00:12.297Z,4.50
2023-10-12T11:02:43.736Z,4.50
2023-10-12T11:05:22.145Z,4.50
2023-10-12T11:08:29.884Z,4.20
2023-10-12T11:12:08.100Z,4.10
2023-10-12T11:15:55.895Z,4.40
2023-10-12T11:18:59.614Z,5.00
2023-10-12T11:21:49.165Z,4.50
2023-10-12T11:24:38.389Z,4.60
2023-10-12T11:27:05.952Z,3.80
2023-10-12T11:30:21.225Z,4.70
2023-10-12T11:33:51.427Z,4.40
2023-10-12T11:36:47.606Z,4.20
2023-10-12T11:40:12.562Z,5.00
2023-10-12T11:43:48.974Z,4.40
2023-10-12T11:47:41.115Z,4.70
2023-10-12T11:51:16.607Z,4.50
2023-10-12T11:54:47.333Z,4.80
2023-10-12T11:58:36.112Z,3.90
2023-10-12T12:02:26.428Z,5.00
2023-10-12T12:06:13.255Z,3.80
2023-10-12T12:09:41.561Z,4.60
2023-10-12T12:13:09.158Z,4.00
2023-10-12T12:16:36.429Z,3.80
2023-10-12T12:19:13.866Z,3.90
2023-10-12T12:21:54.387Z,3.90
2023-10-12T12:24:26.563Z,4.60
2023-10-12T12:27:05.534Z,3.70
2023-10-12T12:30:10.989Z,4.30
2023-10-12T12:33:18.263Z,4.10
2023-10-12T12:36:02.696Z,4.40
2023-10-12T12:38:37.227Z,4.70
2023-10-12T12:41:08.441Z,4.60
2023-10-12T12:43:42.778Z,4.60
2023-10-12T12:46:12.265Z,3.70
2023-10-12T12:48:40.155Z,4.30
2023-10-12T12:51:15.439Z,4.50
2023-10-12T12:53:49.760Z,4.60
2023-10-12T12:56:21.359Z,4.40
2023-10-12T12:58:54.166Z,4.40
2023-10-12T13:01:28.409Z,4.70
2023-10-12T13:04:00.864Z,5.10
2023-10-12T13:06:27.979Z,6.50
2023-10-12T13:08:56.626Z,5.40
2023-10-12T13:11:24.227Z,4.70
2023-10-12T13:13:53.100Z,4.50
2023-10-12T13:16:21.630Z,5.30
2023-10-12T13:18:51.852Z,5.40
2023-10-12T13:21:19.544Z,6.00
2023-10-12T13:23:49.187Z,8.60
2023-10-12T13:26:19.475Z,5.50
2023-10-12T13:28:47.391Z,6.70
2023-10-12T13:31:16.661Z,6.40
2023-10-12T13:33:44.679Z,14.60
2023-10-12T13:36:13.025Z,17.00
2023-10-12T13:38:42.128Z,9.70
2023-10-12T13:41:13.380Z,9.10
2023-10-12T13:43:41.098Z,8.30
2023-10-12T13:46:13.447Z,5.90
2023-10-12T13:49:21.056Z,19.50
2023-10-12T13:51:50.737Z,8.50
2023-10-12T13:54:19.509Z,7.40
2023-10-12T13:56:50.580Z,6.70
2023-10-12T13:59:18.357Z,7.10
2023-10-12T14:01:48.884Z,5.70
2023-10-12T14:04:45.993Z,5.10
2023-10-12T14:07:14.121Z,5.20
2023-10-12T14:09:41.383Z,5.10
2023-10-12T14:12:12.142Z,5.20
2023-10-12T14:14:39.605Z,5.40
2023-10-12T14:17:09.420Z,5.40
2023-10-12T14:19:37.734Z,4.70
2023-10-12T14:22:06.136Z,6.70
2023-10-12T14:24:35.555Z,5.80
2023-10-12T14:27:03.084Z,5.40
2023-10-12T14:29:31.262Z,5.20
2023-10-12T14:31:58.530Z,5.60
2023-10-12T14:34:26.878Z,6.30
2023-10-12T14:36:54.151Z,6.40
2023-10-12T14:39:25.256Z,6.50
2023-10-12T14:41:56.059Z,7.30
2023-10-12T14:44:25.099Z,6.90
2023-10-12T14:46:56.023Z,16.90
2023-10-12T14:49:25.478Z,8.00
2023-10-12T14:51:52.888Z,7.40
2023-10-12T14:54:21.689Z,7.00
2023-10-12T14:56:49.080Z,7.10
2023-10-12T14:59:35.395Z,12.70
2023-10-12T15:02:11.367Z,10.60
2023-10-12T15:04:44.160Z,11.70
2023-10-12T15:07:13.597Z,9.50
2023-10-12T15:09:50.439Z,9.70
2023-10-12T15:12:17.908Z,12.70
2023-10-12T15:14:48.575Z,12.40
2023-10-12T15:17:20.680Z,13.60
2023-10-12T15:19:49.191Z,13.30
2023-10-12T15:22:16.721Z,11.40
2023-10-12T15:24:44.483Z,9.80
2023-10-12T15:27:12.720Z,9.80
2023-10-12T15:29:41.414Z,9.40
2023-10-12T15:32:09.235Z,9.60
2023-10-12T15:34:36.966Z,9.50
2023-10-12T15:37:04.127Z,9.20
2023-10-12T15:39:34.148Z,8.40
2023-10-12T15:42:01.526Z,8.20
2023-10-12T15:44:29.254Z,7.90
2023-10-12T15:47:21.212Z,8.00
2023-10-12T15:50:14.510Z,8.70
2023-10-12T15:53:07.007Z,12.50
2023-10-12T15:56:27.981Z,9.80
2023-10-12T15:58:55.657Z,10.70
2023-10-12T16:01:29.042Z,10.50
2023-10-12T16:03:57.590Z,10.10
2023-10-12T16:06:27.118Z,9.10
2023-10-12T16:08:58.239Z,8.90
2023-10-12T16:11:25.525Z,9.40
2023-10-12T16:13:54.220Z,9.50
2023-10-12T16:16:21.465Z,11.50
2023-10-12T16:18:49.772Z,13.40
2023-10-12T16:21:18.567Z,13.40
2023-10-12T16:23:47.061Z,12.70
2023-10-12T16:26:16.560Z,18.70
2023-10-12T16:28:44.508Z,17.10
2023-10-12T16:31:12.841Z,14.80
2023-10-12T16:33:42.297Z,15.90
2023-10-12T16:36:14.651Z,15.90
2023-10-12T16:38:42.132Z,14.60
2023-10-12T16:41:12.815Z,13.50
2023-10-12T16:43:50.035Z,14.20
2023-10-12T16:46:23.721Z,16.50
2023-10-12T16:48:54.434Z,14.20
2023-10-12T16:51:22.762Z,13.70
2023-10-12T16:53:50.353Z,13.20
2023-10-12T16:56:18.103Z,12.30
2023-10-12T16:58:46.421Z,14.00
2023-10-12T17:01:16.198Z,12.40
2023-10-12T17:03:44.337Z,11.30
2023-10-12T17:06:11.625Z,10.10
2023-10-12T17:08:43.013Z,11.00
2023-10-12T17:11:10.909Z,10.20
2023-10-12T17:13:37.986Z,11.10
2023-10-12T17:16:05.483Z,11.10
2023-10-12T17:18:36.726Z,10.40
2023-10-12T17:21:04.176Z,11.80
2023-10-12T17:23:31.855Z,12.70
2023-10-12T17:26:00.614Z,10.60
2023-10-12T17:28:32.623Z,11.10
2023-10-12T17:31:09.513Z,9.60
2023-10-12T17:33:38.136Z,10.10
2023-10-12T17:36:16.441Z,12.10
2023-10-12T17:38:51.154Z,10.60
2023-10-12T17:41:22.280Z,10.30
2023-10-12T17:43:55.191Z,11.70
2023-10-12T17:46:24.089Z,11.80
2023-10-12T17:48:55.413Z,10.30
2023-10-12T17:51:23.179Z,10.70
2023-10-12T17:53:51.585Z,12.50
2023-10-12T17:56:19.662Z,10.40
2023-10-12T17:58:47.554Z,9.90
2023-10-12T18:01:19.665Z,11.10
2023-10-12T18:03:48.133Z,14.60
2023-10-12T18:06:15.827Z,10.30
2023-10-12T18:08:45.013Z,10.70
2023-10-12T18:11:15.086Z,11.20
2023-10-12T18:13:43.647Z,11.50
2023-10-12T18:16:12.743Z,10.40
2023-10-12T18:18:40.609Z,11.00
2023-10-12T18:21:08.220Z,10.20
2023-10-12T18:23:40.259Z,9.90
2023-10-12T18:26:08.600Z,11.40
2023-10-12T18:28:36.390Z,10.00
2023-10-12T18:31:07.384Z,10.50
2023-10-12T18:33:36.573Z,9.50
2023-10-12T18:36:12.936Z,10.50
2023-10-12T18:38:45.006Z,8.90
2023-10-12T18:41:17.845Z,9.60
2023-10-12T18:43:47.308Z,10.60
2023-10-12T18:46:14.868Z,11.00
2023-10-12T18:48:44.380Z,9.10
2023-10-12T18:51:32.576Z,11.50
2023-10-12T18:54:03.349Z,10.00
2023-10-12T18:56:31.113Z,9.90
2023-10-12T18:58:58.369Z,9.20
2023-10-12T19:01:26.289Z,8.60
2023-10-12T19:03:58.393Z,9.40
2023-10-12T19:06:26.273Z,8.60
2023-10-12T19:08:56.429Z,8.40
2023-10-12T19:11:24.164Z,8.30
2023-10-12T19:13:52.496Z,7.90
2023-10-12T19:16:21.476Z,8.00
2023-10-12T19:18:52.563Z,8.00
2023-10-12T19:21:21.254Z,7.80
2023-10-12T19:23:49.077Z,7.60
2023-10-12T19:26:16.897Z,8.20
2023-10-12T19:28:45.702Z,7.50
2023-10-12T19:31:17.002Z,7.50
2023-10-12T19:33:45.989Z,7.40
2023-10-12T19:36:14.537Z,7.90
2023-10-12T19:38:43.728Z,8.10
2023-10-12T19:41:11.238Z,8.20
2023-10-12T19:43:39.498Z,7.90
2023-10-12T19:46:11.756Z,7.00
2023-10-12T19:48:40.890Z,7.30
2023-10-12T19:51:18.448Z,8.20
2023-10-12T19:53:47.928Z,7.60
2023-10-12T19:56:20.811Z,7.60
2023-10-12T19:58:50.155Z,8.00
2023-10-12T20:01:22.427Z,7.80
2023-10-12T20:03:51.182Z,8.10
2023-10-12T20:06:21.751Z,8.00
2023-10-12T20:08:49.947Z,7.90
2023-10-12T20:11:19.028Z,7.00
2023-10-12T20:13:49.740Z,7.50
2023-10-12T20:16:26.326Z,7.60
2023-10-12T20:18:53.929Z,7.60
2023-10-12T20:21:21.891Z,7.70
2023-10-12T20:23:49.811Z,8.50
2023-10-12T20:26:22.239Z,8.60
2023-10-12T20:28:49.676Z,7.50
2023-10-12T20:31:17.234Z,7.80
2023-10-12T20:33:44.642Z,8.40
2023-10-12T20:36:12.655Z,8.80
2023-10-12T20:38:41.120Z,8.70
2023-10-12T20:41:08.568Z,8.70
2023-10-12T20:43:36.305Z,9.10
2023-10-12T20:46:11.247Z,9.20
2023-10-12T20:48:39.209Z,9.20
2023-10-12T20:51:07.078Z,9.10
2023-10-12T20:53:35.811Z,9.90
2023-10-12T20:56:20.935Z,9.70
2023-10-12T20:58:48.274Z,9.40
2023-10-12T21:01:26.543Z,9.70
2023-10-12T21:03:58.940Z,9.40
2023-10-12T21:06:30.142Z,9.00
2023-10-12T21:08:58.780Z,9.40
2023-10-12T21:11:26.729Z,9.30
2023-10-12T21:13:56.768Z,9.70
2023-10-12T21:16:24.780Z,9.30
2023-10-12T21:18:53.068Z,10.10
2023-10-12T21:21:26.278Z,9.90
2023-10-12T21:23:54.884Z,9.90
2023-10-12T21:26:30.853Z,9.40
2023-10-12T21:28:59.674Z,9.40
2023-10-12T21:31:31.623Z,7.50
2023-10-12T21:34:02.997Z,7.70
2023-10-12T21:36:34.348Z,7.40
2023-10-12T21:39:01.452Z,8.00
2023-10-12T21:41:35.595Z,8.50
2023-10-12T21:44:05.259Z,8.10
2023-10-12T21:46:34.354Z,7.70
2023-10-12T21:49:03.920Z,9.10
2023-10-12T21:51:31.232Z,9.00
2023-10-12T21:53:59.181Z,8.60
2023-10-12T21:56:27.745Z,8.90
2023-10-12T21:58:56.948Z,9.60
2023-10-12T22:01:37.521Z,8.80
2023-10-12T22:04:06.046Z,9.80
2023-10-12T22:06:38.956Z,10.80
2023-10-12T22:09:06.254Z,8.70
2023-10-12T22:11:40.354Z,10.00
2023-10-12T22:14:17.137Z,9.70
2023-10-12T22:16:52.291Z,9.00
2023-10-12T22:19:20.698Z,8.80
2023-10-12T22:21:49.953Z,9.70
2023-10-12T22:24:18.459Z,9.60
2023-10-12T22:26:46.128Z,8.50
2023-10-12T22:29:15.153Z,8.30
2023-10-12T22:31:46.282Z,8.60
2023-10-12T22:34:17.463Z,9.80
2023-10-12T22:36:48.274Z,7.80
2023-10-12T22:39:21.392Z,8.80
2023-10-12T22:41:50.886Z,8.60
2023-10-12T22:44:19.070Z,10.30
2023-10-12T22:46:46.455Z,10.20
2023-10-12T22:49:14.645Z,9.10
2023-10-12T22:51:42.357Z,10.90
2023-10-12T22:54:09.661Z,10.90
2023-10-12T22:56:37.187Z,11.00
2023-10-12T22:59:04.586Z,12.30
2023-10-12T23:01:31.789Z,11.20
2023-10-12T23:03:59.800Z,11.50
2023-10-12T23:06:27.384Z,11.30
2023-10-12T23:08:54.563Z,12.10
2023-10-12T23:11:22.745Z,11.90
2023-10-12T23:13:51.635Z,10.70
2023-10-12T23:16:48.006Z,12.30
2023-10-12T23:19:17.315Z,13.10
2023-10-12T23:21:45.791Z,12.10
2023-10-12T23:24:22.391Z,12.90
2023-10-12T23:26:54.244Z,12.40
2023-10-12T23:29:23.001Z,10.90
2023-10-12T23:31:50.509Z,12.50
2023-10-12T23:34:24.325Z,12.10
2023-10-12T23:37:00.122Z,12.20
2023-10-12T23:39:46.822Z,12.90
2023-10-12T23:44:52.338Z,13.10
2023-10-12T23:47:41.977Z,13.90
2023-10-12T23:50:12.988Z,12.60
2023-10-12T23:53:00.862Z,12.90
2023-10-12T23:55:31.663Z,11.60
2023-10-12T23:58:08.768Z,11.90
